^^
Saratoga-Weather Station Historical Data
Daily Summary for December 16, 2021 Units:  Both    English   Metric
Daily Weekly Monthly Yearly Custom
  High: Low: Average:
Temperature: 49.5 °F /  9.7 °C 41 °F /  5 °C 44.8 °F /  7.1 °C
Dew Point: 46.2 °F /  7.9 °C 39.4 °F /  4.1 °C 43 °F /  6.1 °C
Humidity: 96% 86% 94%
Wind Speed: 2.9mph /  4.7km/h - 0.2mph /  0.3km/h
Wind Gust: 4mph /  6.4km/h - -
Wind- - SSE
Pressure: 30.6 in /  1037.6 hPa 30.5 in /  1034.2 hPa -
Precipitation: 0 in /  0.0 mm    
Historical Graphs
 
 
Tabular Data for December 16, 2021
Time Temperature Dew Point Pressure Wind Wind Speed Wind Gust Humidity Rainfall Rate (Hourly) solar
00:03 43.9 °F /  6.6 °C 42.6 °F /  5.9 °C 30.5in /  1034.2hPa Calm     95% 0in /  0.0mm 0 W/m2
00:08 43.9 °F /  6.6 °C 42.6 °F /  5.9 °C 30.5in /  1034.2hPa Calm     95% 0in /  0.0mm 0 W/m2
00:13 43.9 °F /  6.6 °C 42.6 °F /  5.9 °C 30.5in /  1034.2hPa Calm     95% 0in /  0.0mm 0 W/m2
00:18 43.9 °F /  6.6 °C 42.6 °F /  5.9 °C 30.5in /  1034.2hPa Calm     95% 0in /  0.0mm 0 W/m2
00:23 43.9 °F /  6.6 °C 42.6 °F /  5.9 °C 30.5in /  1034.2hPa Calm     95% 0in /  0.0mm 0 W/m2
00:28 43.9 °F /  6.6 °C 42.6 °F /  5.9 °C 30.6in /  1034.5hPa Calm     95% 0in /  0.0mm 0 W/m2
00:33 43.9 °F /  6.6 °C 42.6 °F /  5.9 °C 30.5in /  1034.2hPa Calm     95% 0in /  0.0mm 0 W/m2
00:38 43.9 °F /  6.6 °C 42.8 °F /  6 °C 30.5in /  1034.2hPa NW 2mph /  3.2km/h 2mph /  3.2km/h 96% 0in /  0.0mm 0 W/m2
00:43 43.9 °F /  6.6 °C 42.8 °F /  6 °C 30.5in /  1034.2hPa NW 0.9mph /  1.4km/h 2mph /  3.2km/h 96% 0in /  0.0mm 0 W/m2
00:48 43.9 °F /  6.6 °C 42.8 °F /  6 °C 30.5in /  1034.2hPa Calm   2mph /  3.2km/h 96% 0in /  0.0mm 0 W/m2
00:53 44.1 °F /  6.7 °C 43 °F /  6.1 °C 30.5in /  1034.2hPa WNW 0.9mph /  1.4km/h 2mph /  3.2km/h 96% 0in /  0.0mm 0 W/m2
00:58 44.1 °F /  6.7 °C 43 °F /  6.1 °C 30.5in /  1034.2hPa WNW 0.9mph /  1.4km/h 1mph /  1.6km/h 96% 0in /  0.0mm 0 W/m2
01:03 44.1 °F /  6.7 °C 43 °F /  6.1 °C 30.5in /  1034.2hPa WNW 2.9mph /  4.7km/h 3mph /  4.8km/h 96% 0in /  0.0mm 0 W/m2
01:08 44.1 °F /  6.7 °C 43 °F /  6.1 °C 30.5in /  1034.2hPa NW 0.9mph /  1.4km/h 2mph /  3.2km/h 96% 0in /  0.0mm 0 W/m2
01:13 44.1 °F /  6.7 °C 43 °F /  6.1 °C 30.5in /  1034.2hPa Calm   2mph /  3.2km/h 96% 0in /  0.0mm 0 W/m2
01:18 44.2 °F /  6.8 °C 43.2 °F /  6.2 °C 30.5in /  1034.2hPa Calm     96% 0in /  0.0mm 0 W/m2
01:23 44.2 °F /  6.8 °C 43 °F /  6.1 °C 30.5in /  1034.2hPa Calm     95% 0in /  0.0mm 0 W/m2
01:28 44.1 °F /  6.7 °C 42.8 °F /  6 °C 30.5in /  1034.2hPa Calm     95% 0in /  0.0mm 0 W/m2
01:33 44.1 °F /  6.7 °C 42.8 °F /  6 °C 30.5in /  1034.2hPa Calm     95% 0in /  0.0mm 0 W/m2
01:38 44.1 °F /  6.7 °C 42.8 °F /  6 °C 30.5in /  1034.2hPa Calm     95% 0in /  0.0mm 0 W/m2
01:43 44.1 °F /  6.7 °C 42.8 °F /  6 °C 30.5in /  1034.2hPa Calm     95% 0in /  0.0mm 0 W/m2
01:48 44.1 °F /  6.7 °C 42.8 °F /  6 °C 30.5in /  1034.2hPa Calm     95% 0in /  0.0mm 0 W/m2
01:53 43.9 °F /  6.6 °C 42.6 °F /  5.9 °C 30.5in /  1034.2hPa Calm     95% 0in /  0.0mm 0 W/m2
01:58 43.9 °F /  6.6 °C 42.6 °F /  5.9 °C 30.5in /  1034.2hPa Calm     95% 0in /  0.0mm 0 W/m2
02:03 43.9 °F /  6.6 °C 42.6 °F /  5.9 °C 30.5in /  1034.2hPa Calm     95% 0in /  0.0mm 0 W/m2
02:08 43.9 °F /  6.6 °C 42.6 °F /  5.9 °C 30.5in /  1034.2hPa Calm     95% 0in /  0.0mm 0 W/m2
02:13 43.9 °F /  6.6 °C 42.6 °F /  5.9 °C 30.5in /  1034.2hPa Calm     95% 0in /  0.0mm 0 W/m2
02:18 43.9 °F /  6.6 °C 42.6 °F /  5.9 °C 30.5in /  1034.2hPa Calm     95% 0in /  0.0mm 0 W/m2
02:23 43.9 °F /  6.6 °C 42.6 °F /  5.9 °C 30.5in /  1034.2hPa Calm     95% 0in /  0.0mm 0 W/m2
02:28 43.9 °F /  6.6 °C 42.6 °F /  5.9 °C 30.5in /  1034.2hPa Calm     95% 0in /  0.0mm 0 W/m2
02:48 43.9 °F /  6.6 °C 42.6 °F /  5.9 °C 30.6in /  1034.5hPa Calm     95% 0in /  0.0mm 0 W/m2
02:53 43.9 °F /  6.6 °C 42.6 °F /  5.9 °C 30.6in /  1034.5hPa Calm     95% 0in /  0.0mm 0 W/m2
02:58 43.9 °F /  6.6 °C 42.6 °F /  5.9 °C 30.6in /  1034.5hPa Calm     95% 0in /  0.0mm 0 W/m2
03:03 43.9 °F /  6.6 °C 42.8 °F /  6 °C 30.6in /  1034.5hPa Calm   1mph /  1.6km/h 96% 0in /  0.0mm 0 W/m2
03:08 43.7 °F /  6.5 °C 42.6 °F /  5.9 °C 30.6in /  1034.5hPa NE 0.9mph /  1.4km/h 2mph /  3.2km/h 96% 0in /  0.0mm 0 W/m2
03:13 43.5 °F /  6.4 °C 42.4 °F /  5.8 °C 30.6in /  1034.5hPa Calm   1mph /  1.6km/h 96% 0in /  0.0mm 0 W/m2
03:18 43.5 °F /  6.4 °C 42.4 °F /  5.8 °C 30.6in /  1034.5hPa Calm     96% 0in /  0.0mm 0 W/m2
03:23 43.5 °F /  6.4 °C 42.4 °F /  5.8 °C 30.6in /  1034.5hPa Calm     96% 0in /  0.0mm 0 W/m2
03:28 43.5 °F /  6.4 °C 42.4 °F /  5.8 °C 30.6in /  1034.5hPa Calm     96% 0in /  0.0mm 0 W/m2
03:33 43.3 °F /  6.3 °C 42.3 °F /  5.7 °C 30.6in /  1034.5hPa Calm     96% 0in /  0.0mm 0 W/m2
03:38 43.3 °F /  6.3 °C 42.3 °F /  5.7 °C 30.6in /  1034.5hPa NE 1mph /  1.6km/h 1mph /  1.6km/h 96% 0in /  0.0mm 0 W/m2
03:43 43.3 °F /  6.3 °C 42.1 °F /  5.6 °C 30.5in /  1034.2hPa Calm     95% 0in /  0.0mm 0 W/m2
03:48 43.3 °F /  6.3 °C 42.1 °F /  5.6 °C 30.5in /  1034.2hPa Calm     95% 0in /  0.0mm 0 W/m2
03:53 43.3 °F /  6.3 °C 42.1 °F /  5.6 °C 30.5in /  1034.2hPa Calm     95% 0in /  0.0mm 0 W/m2
03:58 43.3 °F /  6.3 °C 42.1 °F /  5.6 °C 30.5in /  1034.2hPa Calm     95% 0in /  0.0mm 0 W/m2
04:03 43.3 °F /  6.3 °C 42.1 °F /  5.6 °C 30.6in /  1034.5hPa Calm     95% 0in /  0.0mm 0 W/m2
04:08 43.3 °F /  6.3 °C 42.1 °F /  5.6 °C 30.5in /  1034.2hPa Calm     95% 0in /  0.0mm 0 W/m2
04:13 43.3 °F /  6.3 °C 42.3 °F /  5.7 °C 30.6in /  1034.5hPa Calm     96% 0in /  0.0mm 0 W/m2
04:18 43.3 °F /  6.3 °C 42.3 °F /  5.7 °C 30.5in /  1034.2hPa Calm     96% 0in /  0.0mm 0 W/m2
04:23 43.3 °F /  6.3 °C 42.3 °F /  5.7 °C 30.5in /  1034.2hPa Calm   1mph /  1.6km/h 96% 0in /  0.0mm 0 W/m2
04:28 43.3 °F /  6.3 °C 42.3 °F /  5.7 °C 30.6in /  1034.5hPa Calm     96% 0in /  0.0mm 0 W/m2
04:33 43.3 °F /  6.3 °C 42.3 °F /  5.7 °C 30.5in /  1034.2hPa Calm   1mph /  1.6km/h 96% 0in /  0.0mm 0 W/m2
04:38 43.3 °F /  6.3 °C 42.3 °F /  5.7 °C 30.5in /  1034.2hPa Calm   1mph /  1.6km/h 96% 0in /  0.0mm 0 W/m2
04:43 43.3 °F /  6.3 °C 42.3 °F /  5.7 °C 30.6in /  1034.5hPa Calm     96% 0in /  0.0mm 0 W/m2
04:48 43.3 °F /  6.3 °C 42.3 °F /  5.7 °C 30.6in /  1034.5hPa Calm   1mph /  1.6km/h 96% 0in /  0.0mm 0 W/m2
04:53 43.3 °F /  6.3 °C 42.3 °F /  5.7 °C 30.6in /  1034.5hPa North 2mph /  3.2km/h 2mph /  3.2km/h 96% 0in /  0.0mm 0 W/m2
04:58 43.3 °F /  6.3 °C 42.3 °F /  5.7 °C 30.6in /  1034.5hPa Calm     96% 0in /  0.0mm 0 W/m2
05:03 43.3 °F /  6.3 °C 42.3 °F /  5.7 °C 30.6in /  1034.5hPa Calm     96% 0in /  0.0mm 0 W/m2
05:08 43.3 °F /  6.3 °C 42.3 °F /  5.7 °C 30.6in /  1034.5hPa Calm     96% 0in /  0.0mm 0 W/m2
05:13 43.3 °F /  6.3 °C 42.3 °F /  5.7 °C 30.6in /  1034.5hPa Calm     96% 0in /  0.0mm 0 W/m2
05:18 43.3 °F /  6.3 °C 42.3 °F /  5.7 °C 30.6in /  1034.5hPa Calm     96% 0in /  0.0mm 0 W/m2
05:23 43.3 °F /  6.3 °C 42.3 °F /  5.7 °C 30.6in /  1034.5hPa Calm     96% 0in /  0.0mm 0 W/m2
05:28 43.3 °F /  6.3 °C 42.3 °F /  5.7 °C 30.6in /  1034.5hPa Calm     96% 0in /  0.0mm 0 W/m2
05:33 43.3 °F /  6.3 °C 42.3 °F /  5.7 °C 30.6in /  1034.5hPa NE 0.9mph /  1.4km/h 2mph /  3.2km/h 96% 0in /  0.0mm 0 W/m2
05:50 43.3 °F /  6.3 °C 42.3 °F /  5.7 °C 30.6in /  1034.5hPa NNW 2mph /  3.2km/h 2mph /  3.2km/h 96% 0in /  0.0mm 0 W/m2
05:55 43.5 °F /  6.4 °C 42.4 °F /  5.8 °C 30.6in /  1034.5hPa Calm   1mph /  1.6km/h 96% 0in /  0.0mm 0 W/m2
06:00 43.5 °F /  6.4 °C 42.4 °F /  5.8 °C 30.6in /  1034.5hPa Calm     96% 0in /  0.0mm 0 W/m2
06:05 43.5 °F /  6.4 °C 42.4 °F /  5.8 °C 30.6in /  1034.9hPa Calm     96% 0in /  0.0mm 0 W/m2
06:10 43.5 °F /  6.4 °C 42.4 °F /  5.8 °C 30.6in /  1034.5hPa Calm   1mph /  1.6km/h 96% 0in /  0.0mm 0 W/m2
06:16 43.5 °F /  6.4 °C 42.4 °F /  5.8 °C 30.6in /  1034.5hPa Calm     96% 0in /  0.0mm 0 W/m2
06:21 43.5 °F /  6.4 °C 42.4 °F /  5.8 °C 30.6in /  1034.9hPa Calm     96% 0in /  0.0mm 0 W/m2
06:26 43.5 °F /  6.4 °C 42.4 °F /  5.8 °C 30.6in /  1034.9hPa NNW 0.9mph /  1.4km/h 2mph /  3.2km/h 96% 0in /  0.0mm 0 W/m2
06:31 43.5 °F /  6.4 °C 42.4 °F /  5.8 °C 30.6in /  1034.9hPa Calm   2mph /  3.2km/h 96% 0in /  0.0mm 0 W/m2
06:36 43.5 °F /  6.4 °C 42.4 °F /  5.8 °C 30.6in /  1034.9hPa Calm     96% 0in /  0.0mm 0 W/m2
06:41 43.5 °F /  6.4 °C 42.4 °F /  5.8 °C 30.6in /  1034.9hPa Calm   1mph /  1.6km/h 96% 0in /  0.0mm 0 W/m2
06:46 43.5 °F /  6.4 °C 42.4 °F /  5.8 °C 30.6in /  1035.2hPa North 2mph /  3.2km/h 3mph /  4.8km/h 96% 0in /  0.0mm 0 W/m2
06:51 43.5 °F /  6.4 °C 42.4 °F /  5.8 °C 30.6in /  1035.2hPa Calm     96% 0in /  0.0mm 0 W/m2
06:56 43.7 °F /  6.5 °C 42.6 °F /  5.9 °C 30.6in /  1035.2hPa Calm     96% 0in /  0.0mm 0 W/m2
07:01 43.7 °F /  6.5 °C 42.6 °F /  5.9 °C 30.6in /  1035.2hPa Calm     96% 0in /  0.0mm 0 W/m2
07:06 43.7 °F /  6.5 °C 42.6 °F /  5.9 °C 30.6in /  1035.2hPa Calm     96% 0in /  0.0mm 0 W/m2
07:11 43.7 °F /  6.5 °C 42.6 °F /  5.9 °C 30.6in /  1035.2hPa Calm     96% 0in /  0.0mm 0 W/m2
07:16 43.7 °F /  6.5 °C 42.6 °F /  5.9 °C 30.6in /  1035.2hPa Calm     96% 0in /  0.0mm 0 W/m2
07:21 43.7 °F /  6.5 °C 42.6 °F /  5.9 °C 30.6in /  1035.2hPa NE 0.9mph /  1.4km/h 3mph /  4.8km/h 96% 0in /  0.0mm 0 W/m2
07:26 43.7 °F /  6.5 °C 42.6 °F /  5.9 °C 30.6in /  1035.2hPa Calm     96% 0in /  0.0mm 0 W/m2
07:31 43.7 °F /  6.5 °C 42.6 °F /  5.9 °C 30.6in /  1035.2hPa Calm   3mph /  4.8km/h 96% 0in /  0.0mm 0 W/m2
07:36 43.9 °F /  6.6 °C 42.8 °F /  6 °C 30.6in /  1035.2hPa Calm     96% 0in /  0.0mm 0 W/m2
07:41 43.9 °F /  6.6 °C 42.8 °F /  6 °C 30.6in /  1035.2hPa Calm   1mph /  1.6km/h 96% 0in /  0.0mm 0 W/m2
07:46 43.9 °F /  6.6 °C 42.8 °F /  6 °C 30.6in /  1035.2hPa Calm     96% 0in /  0.0mm 0 W/m2
07:56 43.9 °F /  6.6 °C 42.8 °F /  6 °C 30.6in /  1034.9hPa Calm     96% 0in /  0.0mm 0 W/m2
08:01 43.9 °F /  6.6 °C 42.8 °F /  6 °C 30.6in /  1035.2hPa NNW 0.9mph /  1.4km/h 2mph /  3.2km/h 96% 0in /  0.0mm 0 W/m2
08:06 43.9 °F /  6.6 °C 42.8 °F /  6 °C 30.6in /  1035.2hPa NNW 0.9mph /  1.4km/h 2mph /  3.2km/h 96% 0in /  0.0mm 0 W/m2
08:11 43.9 °F /  6.6 °C 42.8 °F /  6 °C 30.6in /  1035.2hPa Calm     96% 0in /  0.0mm 0 W/m2
08:16 43.9 °F /  6.6 °C 42.8 °F /  6 °C 30.6in /  1035.2hPa Calm     96% 0in /  0.0mm 0 W/m2
08:21 43.9 °F /  6.6 °C 42.8 °F /  6 °C 30.6in /  1035.2hPa Calm     96% 0in /  0.0mm 0 W/m2
08:26 43.9 °F /  6.6 °C 42.8 °F /  6 °C 30.6in /  1035.2hPa NNW 0.9mph /  1.4km/h 2mph /  3.2km/h 96% 0in /  0.0mm 0 W/m2
08:31 43.9 °F /  6.6 °C 42.8 °F /  6 °C 30.6in /  1035.6hPa Calm   2mph /  3.2km/h 96% 0in /  0.0mm 0 W/m2
08:36 43.9 °F /  6.6 °C 42.8 °F /  6 °C 30.6in /  1035.6hPa Calm     96% 0in /  0.0mm 0 W/m2
08:41 43.7 °F /  6.5 °C 42.6 °F /  5.9 °C 30.6in /  1035.6hPa Calm   1mph /  1.6km/h 96% 0in /  0.0mm 0 W/m2
08:46 43.7 °F /  6.5 °C 42.6 °F /  5.9 °C 30.6in /  1035.6hPa Calm     96% 0in /  0.0mm 5 W/m2
08:51 43.7 °F /  6.5 °C 42.6 °F /  5.9 °C 30.6in /  1035.9hPa Calm   2mph /  3.2km/h 96% 0in /  0.0mm 5 W/m2
08:56 43.7 °F /  6.5 °C 42.6 °F /  5.9 °C 30.6in /  1035.9hPa Calm     96% 0in /  0.0mm 7 W/m2
09:01 43.5 °F /  6.4 °C 42.4 °F /  5.8 °C 30.6in /  1035.9hPa Calm   2mph /  3.2km/h 96% 0in /  0.0mm 7 W/m2
09:06 43.5 °F /  6.4 °C 42.4 °F /  5.8 °C 30.6in /  1036.2hPa Calm     96% 0in /  0.0mm 9 W/m2
09:11 43.5 °F /  6.4 °C 42.4 °F /  5.8 °C 30.6in /  1035.9hPa Calm     96% 0in /  0.0mm 11 W/m2
09:16 43.5 °F /  6.4 °C 42.4 °F /  5.8 °C 30.6in /  1036.2hPa Calm     96% 0in /  0.0mm 11 W/m2
09:21 43.5 °F /  6.4 °C 42.4 °F /  5.8 °C 30.6in /  1036.2hPa Calm     96% 0in /  0.0mm 12 W/m2
09:26 43.5 °F /  6.4 °C 42.4 °F /  5.8 °C 30.6in /  1036.2hPa Calm     96% 0in /  0.0mm 12 W/m2
09:31 43.7 °F /  6.5 °C 42.6 °F /  5.9 °C 30.6in /  1036.2hPa Calm     96% 0in /  0.0mm 14 W/m2
09:36 43.7 °F /  6.5 °C 42.6 °F /  5.9 °C 30.6in /  1036.2hPa Calm     96% 0in /  0.0mm 16 W/m2
09:41 43.7 °F /  6.5 °C 42.6 °F /  5.9 °C 30.6in /  1036.2hPa Calm     96% 0in /  0.0mm 19 W/m2
09:46 43.7 °F /  6.5 °C 42.6 °F /  5.9 °C 30.6in /  1036.2hPa Calm     96% 0in /  0.0mm 19 W/m2
09:51 43.7 °F /  6.5 °C 42.6 °F /  5.9 °C 30.6in /  1036.2hPa Calm     96% 0in /  0.0mm 23 W/m2
09:56 43.9 °F /  6.6 °C 42.8 °F /  6 °C 30.6in /  1036.2hPa Calm     96% 0in /  0.0mm 28 W/m2
10:01 43.9 °F /  6.6 °C 42.8 °F /  6 °C 30.6in /  1036.2hPa Calm     96% 0in /  0.0mm 37 W/m2
10:06 44.1 °F /  6.7 °C 43 °F /  6.1 °C 30.6in /  1036.2hPa Calm     96% 0in /  0.0mm 39 W/m2
10:11 44.1 °F /  6.7 °C 43 °F /  6.1 °C 30.6in /  1036.6hPa Calm     96% 0in /  0.0mm 37 W/m2
10:16 44.1 °F /  6.7 °C 43 °F /  6.1 °C 30.6in /  1036.2hPa Calm     96% 0in /  0.0mm 44 W/m2
10:21 44.2 °F /  6.8 °C 43.2 °F /  6.2 °C 30.6in /  1036.6hPa Calm     96% 0in /  0.0mm 44 W/m2
10:26 44.2 °F /  6.8 °C 43.2 °F /  6.2 °C 30.6in /  1036.6hPa Calm     96% 0in /  0.0mm 51 W/m2
10:31 44.4 °F /  6.9 °C 43.3 °F /  6.3 °C 30.6in /  1036.6hPa Calm     96% 0in /  0.0mm 54 W/m2
10:36 44.4 °F /  6.9 °C 43.3 °F /  6.3 °C 30.6in /  1036.9hPa Calm   1mph /  1.6km/h 96% 0in /  0.0mm 54 W/m2
10:41 44.6 °F /  7 °C 43.5 °F /  6.4 °C 30.6in /  1036.9hPa Calm     96% 0in /  0.0mm 54 W/m2
10:46 44.8 °F /  7.1 °C 43.7 °F /  6.5 °C 30.6in /  1036.9hPa Calm     96% 0in /  0.0mm 58 W/m2
10:51 45 °F /  7.2 °C 43.9 °F /  6.6 °C 30.6in /  1036.9hPa Calm     96% 0in /  0.0mm 69 W/m2
10:56 45 °F /  7.2 °C 43.9 °F /  6.6 °C 30.6in /  1036.9hPa Calm   2mph /  3.2km/h 96% 0in /  0.0mm 63 W/m2
11:01 45.1 °F /  7.3 °C 44.1 °F /  6.7 °C 30.6in /  1036.9hPa Calm     96% 0in /  0.0mm 72 W/m2
11:06 45.1 °F /  7.3 °C 44.1 °F /  6.7 °C 30.6in /  1036.9hPa Calm     96% 0in /  0.0mm 77 W/m2
11:11 45.3 °F /  7.4 °C 44.2 °F /  6.8 °C 30.6in /  1036.9hPa Calm     96% 0in /  0.0mm 83 W/m2
11:17 45.3 °F /  7.4 °C 44.2 °F /  6.8 °C 30.6in /  1036.9hPa Calm     96% 0in /  0.0mm 77 W/m2
11:22 45.7 °F /  7.6 °C 44.6 °F /  7 °C 30.6in /  1036.9hPa Calm     96% 0in /  0.0mm 76 W/m2
11:27 45.7 °F /  7.6 °C 44.4 °F /  6.9 °C 30.6in /  1036.9hPa Calm     95% 0in /  0.0mm 76 W/m2
11:32 45.9 °F /  7.7 °C 44.4 °F /  6.9 °C 30.6in /  1036.9hPa ENE 0.9mph /  1.4km/h 1mph /  1.6km/h 95% 0in /  0.0mm 70 W/m2
11:37 46 °F /  7.8 °C 44.6 °F /  7 °C 30.6in /  1036.9hPa Calm     95% 0in /  0.0mm 74 W/m2
11:42 46 °F /  7.8 °C 44.6 °F /  7 °C 30.6in /  1036.9hPa NE 2mph /  3.2km/h 2mph /  3.2km/h 95% 0in /  0.0mm 74 W/m2
11:47 46.2 °F /  7.9 °C 44.8 °F /  7.1 °C 30.6in /  1036.9hPa Calm     95% 0in /  0.0mm 84 W/m2
11:52 46.4 °F /  8 °C 45 °F /  7.2 °C 30.6in /  1036.9hPa North 0.9mph /  1.4km/h 1mph /  1.6km/h 95% 0in /  0.0mm 91 W/m2
11:57 46.6 °F /  8.1 °C 45.1 °F /  7.3 °C 30.6in /  1036.9hPa Calm     95% 0in /  0.0mm 95 W/m2
12:02 46.8 °F /  8.2 °C 45.1 °F /  7.3 °C 30.6in /  1036.9hPa Calm     94% 0in /  0.0mm 98 W/m2
12:07 46.9 °F /  8.3 °C 45.3 °F /  7.4 °C 30.6in /  1036.9hPa Calm   2mph /  3.2km/h 94% 0in /  0.0mm 90 W/m2
12:12 47.1 °F /  8.4 °C 45.5 °F /  7.5 °C 30.6in /  1036.9hPa Calm     94% 0in /  0.0mm 88 W/m2
12:17 47.1 °F /  8.4 °C 45.5 °F /  7.5 °C 30.6in /  1036.9hPa Calm     94% 0in /  0.0mm 95 W/m2
12:22 47.5 °F /  8.6 °C 45.5 °F /  7.5 °C 30.6in /  1036.6hPa Calm   2mph /  3.2km/h 93% 0in /  0.0mm 104 W/m2
12:27 47.5 °F /  8.6 °C 45.5 °F /  7.5 °C 30.6in /  1036.6hPa Calm     93% 0in /  0.0mm 111 W/m2
12:32 47.7 °F /  8.7 °C 45.7 °F /  7.6 °C 30.6in /  1036.6hPa Calm   1mph /  1.6km/h 93% 0in /  0.0mm 120 W/m2
12:37 47.8 °F /  8.8 °C 45.7 °F /  7.6 °C 30.6in /  1036.6hPa East 0.9mph /  1.4km/h 2mph /  3.2km/h 92% 0in /  0.0mm 135 W/m2
12:42 47.8 °F /  8.8 °C 45.7 °F /  7.6 °C 30.6in /  1036.6hPa Calm   1mph /  1.6km/h 92% 0in /  0.0mm 134 W/m2
12:47 48 °F /  8.9 °C 45.9 °F /  7.7 °C 30.6in /  1036.6hPa Calm   1mph /  1.6km/h 92% 0in /  0.0mm 134 W/m2
12:52 48 °F /  8.9 °C 45.9 °F /  7.7 °C 30.6in /  1036.6hPa Calm   4mph /  6.4km/h 92% 0in /  0.0mm 132 W/m2
12:57 48.2 °F /  9 °C 46 °F /  7.8 °C 30.6in /  1036.6hPa Calm     92% 0in /  0.0mm 121 W/m2
13:02 48.4 °F /  9.1 °C 45.9 °F /  7.7 °C 30.6in /  1036.6hPa East 0.9mph /  1.4km/h 4mph /  6.4km/h 91% 0in /  0.0mm 116 W/m2
13:07 48.6 °F /  9.2 °C 46 °F /  7.8 °C 30.6in /  1036.6hPa ENE 0.9mph /  1.4km/h 3mph /  4.8km/h 91% 0in /  0.0mm 114 W/m2
13:12 48.6 °F /  9.2 °C 46 °F /  7.8 °C 30.6in /  1036.6hPa ESE 0.9mph /  1.4km/h 2mph /  3.2km/h 91% 0in /  0.0mm 121 W/m2
13:17 48.7 °F /  9.3 °C 45.9 °F /  7.7 °C 30.6in /  1036.6hPa Calm   3mph /  4.8km/h 90% 0in /  0.0mm 123 W/m2
13:22 48.7 °F /  9.3 °C 45.9 °F /  7.7 °C 30.6in /  1036.6hPa ENE 0.9mph /  1.4km/h 1mph /  1.6km/h 90% 0in /  0.0mm 113 W/m2
13:27 48.9 °F /  9.4 °C 46 °F /  7.8 °C 30.6in /  1036.6hPa NW 0.9mph /  1.4km/h 2mph /  3.2km/h 90% 0in /  0.0mm 105 W/m2
13:32 48.9 °F /  9.4 °C 45.9 °F /  7.7 °C 30.6in /  1036.6hPa Calm   2mph /  3.2km/h 89% 0in /  0.0mm 109 W/m2
13:37 49.1 °F /  9.5 °C 46 °F /  7.8 °C 30.6in /  1036.2hPa Calm   2mph /  3.2km/h 89% 0in /  0.0mm 100 W/m2
13:42 49.1 °F /  9.5 °C 46 °F /  7.8 °C 30.6in /  1036.2hPa Calm     89% 0in /  0.0mm 109 W/m2
13:47 49.3 °F /  9.6 °C 46.2 °F /  7.9 °C 30.6in /  1036.2hPa Calm   3mph /  4.8km/h 89% 0in /  0.0mm 102 W/m2
13:52 49.3 °F /  9.6 °C 45.9 °F /  7.7 °C 30.6in /  1036.2hPa NNE 2mph /  3.2km/h 2mph /  3.2km/h 88% 0in /  0.0mm 81 W/m2
13:57 49.3 °F /  9.6 °C 45.9 °F /  7.7 °C 30.6in /  1036.2hPa Calm   3mph /  4.8km/h 88% 0in /  0.0mm 84 W/m2
14:02 49.5 °F /  9.7 °C 46 °F /  7.8 °C 30.6in /  1036.2hPa East 0.9mph /  1.4km/h 3mph /  4.8km/h 88% 0in /  0.0mm 79 W/m2
14:07 49.3 °F /  9.6 °C 45.5 °F /  7.5 °C 30.6in /  1036.2hPa Calm   2mph /  3.2km/h 87% 0in /  0.0mm 67 W/m2
14:12 49.3 °F /  9.6 °C 45.5 °F /  7.5 °C 30.6in /  1036.2hPa ENE 2mph /  3.2km/h 2mph /  3.2km/h 87% 0in /  0.0mm 53 W/m2
14:17 49.3 °F /  9.6 °C 45.3 °F /  7.4 °C 30.6in /  1036.2hPa SE 0.9mph /  1.4km/h 2mph /  3.2km/h 86% 0in /  0.0mm 56 W/m2
14:22 49.3 °F /  9.6 °C 45.3 °F /  7.4 °C 30.6in /  1036.2hPa ENE 0.9mph /  1.4km/h 2mph /  3.2km/h 86% 0in /  0.0mm 67 W/m2
14:27 49.3 °F /  9.6 °C 45.5 °F /  7.5 °C 30.6in /  1036.6hPa Calm   3mph /  4.8km/h 87% 0in /  0.0mm 84 W/m2
14:32 49.3 °F /  9.6 °C 45.5 °F /  7.5 °C 30.6in /  1036.2hPa Calm   2mph /  3.2km/h 87% 0in /  0.0mm 70 W/m2
14:37 49.5 °F /  9.7 °C 45.5 °F /  7.5 °C 30.6in /  1036.2hPa Calm   3mph /  4.8km/h 86% 0in /  0.0mm 76 W/m2
14:42 49.5 °F /  9.7 °C 45.5 °F /  7.5 °C 30.6in /  1036.2hPa NE 0.9mph /  1.4km/h 1mph /  1.6km/h 86% 0in /  0.0mm 70 W/m2
14:47 49.5 °F /  9.7 °C 45.7 °F /  7.6 °C 30.6in /  1036.2hPa Calm   2mph /  3.2km/h 87% 0in /  0.0mm 49 W/m2
14:52 49.3 °F /  9.6 °C 45.5 °F /  7.5 °C 30.6in /  1036.2hPa East 2mph /  3.2km/h 3mph /  4.8km/h 87% 0in /  0.0mm 30 W/m2
14:57 49.3 °F /  9.6 °C 45.5 °F /  7.5 °C 30.6in /  1036.2hPa Calm     87% 0in /  0.0mm 28 W/m2
15:02 48.9 °F /  9.4 °C 45.1 °F /  7.3 °C 30.6in /  1036.2hPa East 0.9mph /  1.4km/h 3mph /  4.8km/h 87% 0in /  0.0mm 28 W/m2
15:07 48.7 °F /  9.3 °C 45.3 °F /  7.4 °C 30.6in /  1036.2hPa Calm     88% 0in /  0.0mm 26 W/m2
15:12 48.7 °F /  9.3 °C 45.3 °F /  7.4 °C 30.6in /  1036.2hPa Calm     88% 0in /  0.0mm 25 W/m2
15:17 48.6 °F /  9.2 °C 45.1 °F /  7.3 °C 30.6in /  1036.2hPa Calm     88% 0in /  0.0mm 25 W/m2
15:22 48.2 °F /  9 °C 44.8 °F /  7.1 °C 30.6in /  1036.2hPa Calm     88% 0in /  0.0mm 23 W/m2
15:27 48 °F /  8.9 °C 44.6 °F /  7 °C 30.6in /  1036.2hPa East 0.9mph /  1.4km/h 1mph /  1.6km/h 88% 0in /  0.0mm 23 W/m2
15:32 47.8 °F /  8.8 °C 44.8 °F /  7.1 °C 30.6in /  1036.2hPa Calm   1mph /  1.6km/h 89% 0in /  0.0mm 21 W/m2
15:37 47.8 °F /  8.8 °C 44.8 °F /  7.1 °C 30.6in /  1036.2hPa Calm     89% 0in /  0.0mm 21 W/m2
15:42 47.7 °F /  8.7 °C 44.6 °F /  7 °C 30.6in /  1036.2hPa Calm     89% 0in /  0.0mm 19 W/m2
15:48 47.5 °F /  8.6 °C 44.4 °F /  6.9 °C 30.6in /  1036.2hPa Calm     89% 0in /  0.0mm 19 W/m2
15:53 47.1 °F /  8.4 °C 44.1 °F /  6.7 °C 30.6in /  1036.2hPa Calm   3mph /  4.8km/h 89% 0in /  0.0mm 18 W/m2
15:58 47.1 °F /  8.4 °C 43.7 °F /  6.5 °C 30.6in /  1036.2hPa Calm     88% 0in /  0.0mm 18 W/m2
16:03 46.9 °F /  8.3 °C 43.5 °F /  6.4 °C 30.6in /  1036.2hPa ENE 0.9mph /  1.4km/h 3mph /  4.8km/h 88% 0in /  0.0mm 16 W/m2
16:08 46.9 °F /  8.3 °C 43.5 °F /  6.4 °C 30.6in /  1036.6hPa Calm     88% 0in /  0.0mm 14 W/m2
16:13 46.9 °F /  8.3 °C 43.5 °F /  6.4 °C 30.6in /  1036.6hPa Calm   2mph /  3.2km/h 88% 0in /  0.0mm 14 W/m2
16:18 46.8 °F /  8.2 °C 43.2 °F /  6.2 °C 30.6in /  1036.6hPa Calm     87% 0in /  0.0mm 14 W/m2
16:23 46.8 °F /  8.2 °C 43.3 °F /  6.3 °C 30.6in /  1036.6hPa Calm   2mph /  3.2km/h 88% 0in /  0.0mm 14 W/m2
16:28 46.6 °F /  8.1 °C 43 °F /  6.1 °C 30.6in /  1036.6hPa Calm     87% 0in /  0.0mm 9 W/m2
16:33 46.4 °F /  8 °C 43 °F /  6.1 °C 30.6in /  1036.6hPa Calm     88% 0in /  0.0mm 5 W/m2
16:38 46.2 °F /  7.9 °C 42.8 °F /  6 °C 30.6in /  1036.2hPa Calm     88% 0in /  0.0mm 5 W/m2
16:43 46 °F /  7.8 °C 42.6 °F /  5.9 °C 30.6in /  1036.2hPa Calm     88% 0in /  0.0mm 0 W/m2
16:48 45.9 °F /  7.7 °C 42.4 °F /  5.8 °C 30.6in /  1036.6hPa Calm     88% 0in /  0.0mm 0 W/m2
16:53 45.7 °F /  7.6 °C 42.3 °F /  5.7 °C 30.6in /  1036.6hPa Calm     88% 0in /  0.0mm 0 W/m2
16:58 45.5 °F /  7.5 °C 42.4 °F /  5.8 °C 30.6in /  1036.6hPa Calm     89% 0in /  0.0mm 0 W/m2
17:03 45.1 °F /  7.3 °C 42.1 °F /  5.6 °C 30.6in /  1036.6hPa Calm     89% 0in /  0.0mm 0 W/m2
17:08 45 °F /  7.2 °C 41.9 °F /  5.5 °C 30.6in /  1036.6hPa Calm     89% 0in /  0.0mm 0 W/m2
17:13 44.8 °F /  7.1 °C 42.1 °F /  5.6 °C 30.6in /  1036.6hPa Calm     90% 0in /  0.0mm 0 W/m2
17:18 44.4 °F /  6.9 °C 41.7 °F /  5.4 °C 30.6in /  1036.9hPa Calm     90% 0in /  0.0mm 0 W/m2
17:23 44.2 °F /  6.8 °C 41.5 °F /  5.3 °C 30.6in /  1036.9hPa Calm     90% 0in /  0.0mm 0 W/m2
17:28 44.1 °F /  6.7 °C 41.4 °F /  5.2 °C 30.6in /  1036.9hPa Calm     90% 0in /  0.0mm 0 W/m2
17:33 43.9 °F /  6.6 °C 41.4 °F /  5.2 °C 30.6in /  1036.9hPa Calm     91% 0in /  0.0mm 0 W/m2
17:38 43.7 °F /  6.5 °C 41.2 °F /  5.1 °C 30.6in /  1036.9hPa Calm     91% 0in /  0.0mm 0 W/m2
17:43 43.5 °F /  6.4 °C 41 °F /  5 °C 30.6in /  1036.9hPa Calm     91% 0in /  0.0mm 0 W/m2
17:48 43.3 °F /  6.3 °C 40.8 °F /  4.9 °C 30.6in /  1037.2hPa Calm     91% 0in /  0.0mm 0 W/m2
17:53 43.3 °F /  6.3 °C 40.8 °F /  4.9 °C 30.6in /  1037.2hPa Calm     91% 0in /  0.0mm 0 W/m2
17:58 43.2 °F /  6.2 °C 41 °F /  5 °C 30.6in /  1037.2hPa Calm     92% 0in /  0.0mm 0 W/m2
18:03 43.2 °F /  6.2 °C 41 °F /  5 °C 30.6in /  1037.2hPa ENE 0.9mph /  1.4km/h 1mph /  1.6km/h 92% 0in /  0.0mm 0 W/m2
18:08 43 °F /  6.1 °C 40.8 °F /  4.9 °C 30.6in /  1036.9hPa Calm     92% 0in /  0.0mm 0 W/m2
18:13 43 °F /  6.1 °C 40.8 °F /  4.9 °C 30.6in /  1037.2hPa Calm     92% 0in /  0.0mm 0 W/m2
18:18 42.8 °F /  6 °C 40.6 °F /  4.8 °C 30.6in /  1036.9hPa Calm     92% 0in /  0.0mm 0 W/m2
18:23 42.8 °F /  6 °C 40.6 °F /  4.8 °C 30.6in /  1036.9hPa Calm     92% 0in /  0.0mm 0 W/m2
18:28 42.8 °F /  6 °C 41 °F /  5 °C 30.6in /  1036.9hPa Calm     93% 0in /  0.0mm 0 W/m2
18:33 42.6 °F /  5.9 °C 40.5 °F /  4.7 °C 30.6in /  1036.9hPa Calm     92% 0in /  0.0mm 0 W/m2
18:38 42.4 °F /  5.8 °C 40.6 °F /  4.8 °C 30.6in /  1036.9hPa Calm     93% 0in /  0.0mm 0 W/m2
18:43 42.4 °F /  5.8 °C 40.6 °F /  4.8 °C 30.6in /  1036.9hPa Calm     93% 0in /  0.0mm 0 W/m2
18:48 42.4 °F /  5.8 °C 40.6 °F /  4.8 °C 30.6in /  1036.9hPa Calm     93% 0in /  0.0mm 0 W/m2
18:53 42.4 °F /  5.8 °C 40.6 °F /  4.8 °C 30.6in /  1036.9hPa Calm     93% 0in /  0.0mm 0 W/m2
18:58 42.3 °F /  5.7 °C 40.5 °F /  4.7 °C 30.6in /  1036.9hPa Calm     93% 0in /  0.0mm 0 W/m2
19:03 42.3 °F /  5.7 °C 40.5 °F /  4.7 °C 30.6in /  1036.9hPa Calm     93% 0in /  0.0mm 0 W/m2
19:08 42.3 °F /  5.7 °C 40.5 °F /  4.7 °C 30.6in /  1036.9hPa Calm     93% 0in /  0.0mm 0 W/m2
19:13 42.1 °F /  5.6 °C 40.3 °F /  4.6 °C 30.6in /  1036.9hPa Calm     93% 0in /  0.0mm 0 W/m2
19:18 42.1 °F /  5.6 °C 40.3 °F /  4.6 °C 30.6in /  1036.9hPa Calm     93% 0in /  0.0mm 0 W/m2
19:23 42.1 °F /  5.6 °C 40.5 °F /  4.7 °C 30.6in /  1036.9hPa Calm     94% 0in /  0.0mm 0 W/m2
19:28 41.9 °F /  5.5 °C 40.1 °F /  4.5 °C 30.6in /  1036.9hPa Calm     93% 0in /  0.0mm 0 W/m2
19:46 41.4 °F /  5.2 °C 39.7 °F /  4.3 °C 30.6in /  1037.2hPa Calm     94% 0in /  0.0mm 0 W/m2
19:51 41.4 °F /  5.2 °C 39.7 °F /  4.3 °C 30.6in /  1037.2hPa Calm     94% 0in /  0.0mm 0 W/m2
19:56 41.2 °F /  5.1 °C 39.6 °F /  4.2 °C 30.6in /  1037.2hPa Calm     94% 0in /  0.0mm 0 W/m2
20:01 41 °F /  5 °C 39.4 °F /  4.1 °C 30.6in /  1037.2hPa Calm     94% 0in /  0.0mm 0 W/m2
20:06 41.2 °F /  5.1 °C 39.6 °F /  4.2 °C 30.6in /  1037.2hPa Calm   1mph /  1.6km/h 94% 0in /  0.0mm 0 W/m2
20:11 41.2 °F /  5.1 °C 39.6 °F /  4.2 °C 30.6in /  1037.2hPa Calm     94% 0in /  0.0mm 0 W/m2
20:16 41.4 °F /  5.2 °C 40.1 °F /  4.5 °C 30.6in /  1037.2hPa Calm   1mph /  1.6km/h 95% 0in /  0.0mm 0 W/m2
20:21 41.7 °F /  5.4 °C 40.5 °F /  4.7 °C 30.6in /  1037.2hPa Calm   1mph /  1.6km/h 95% 0in /  0.0mm 0 W/m2
20:26 42.1 °F /  5.6 °C 40.8 °F /  4.9 °C 30.6in /  1037.2hPa Calm     95% 0in /  0.0mm 0 W/m2
20:32 42.1 °F /  5.6 °C 40.8 °F /  4.9 °C 30.6in /  1037.2hPa Calm     95% 0in /  0.0mm 0 W/m2
20:37 42.3 °F /  5.7 °C 41 °F /  5 °C 30.6in /  1037.2hPa Calm   1mph /  1.6km/h 95% 0in /  0.0mm 0 W/m2
20:42 42.4 °F /  5.8 °C 41.2 °F /  5.1 °C 30.6in /  1037.2hPa Calm     95% 0in /  0.0mm 0 W/m2
20:47 42.4 °F /  5.8 °C 41.2 °F /  5.1 °C 30.6in /  1037.2hPa Calm   1mph /  1.6km/h 95% 0in /  0.0mm 0 W/m2
20:52 42.6 °F /  5.9 °C 41.4 °F /  5.2 °C 30.6in /  1037.2hPa Calm     95% 0in /  0.0mm 0 W/m2
20:57 42.8 °F /  6 °C 41.5 °F /  5.3 °C 30.6in /  1037.2hPa Calm     95% 0in /  0.0mm 0 W/m2
21:02 43 °F /  6.1 °C 41.7 °F /  5.4 °C 30.6in /  1037.2hPa Calm     95% 0in /  0.0mm 0 W/m2
21:07 43 °F /  6.1 °C 41.7 °F /  5.4 °C 30.6in /  1037.2hPa Calm     95% 0in /  0.0mm 0 W/m2
21:12 43.2 °F /  6.2 °C 41.9 °F /  5.5 °C 30.6in /  1037.6hPa Calm     95% 0in /  0.0mm 0 W/m2
21:17 43.2 °F /  6.2 °C 41.9 °F /  5.5 °C 30.6in /  1037.6hPa Calm     95% 0in /  0.0mm 0 W/m2
21:22 43.3 °F /  6.3 °C 42.1 °F /  5.6 °C 30.6in /  1037.6hPa Calm     95% 0in /  0.0mm 0 W/m2
21:27 43.3 °F /  6.3 °C 42.1 °F /  5.6 °C 30.6in /  1037.6hPa Calm     95% 0in /  0.0mm 0 W/m2
21:32 43.5 °F /  6.4 °C 42.3 °F /  5.7 °C 30.6in /  1037.6hPa Calm     95% 0in /  0.0mm 0 W/m2
21:37 43.7 °F /  6.5 °C 42.4 °F /  5.8 °C 30.6in /  1037.6hPa Calm     95% 0in /  0.0mm 0 W/m2
21:42 44.1 °F /  6.7 °C 42.4 °F /  5.8 °C 30.6in /  1037.6hPa East 0.9mph /  1.4km/h 2mph /  3.2km/h 94% 0in /  0.0mm 0 W/m2
21:47 44.2 °F /  6.8 °C 42.6 °F /  5.9 °C 30.6in /  1037.6hPa Calm     94% 0in /  0.0mm 0 W/m2
21:52 44.4 °F /  6.9 °C 42.8 °F /  6 °C 30.6in /  1037.6hPa Calm     94% 0in /  0.0mm 0 W/m2
21:57 44.8 °F /  7.1 °C 42.8 °F /  6 °C 30.6in /  1037.6hPa Calm   1mph /  1.6km/h 93% 0in /  0.0mm 0 W/m2
22:18 44.8 °F /  7.1 °C 42.6 °F /  5.9 °C 30.6in /  1037.2hPa East 0.9mph /  1.4km/h 1mph /  1.6km/h 92% 0in /  0.0mm 0 W/m2
22:23 44.8 °F /  7.1 °C 42.6 °F /  5.9 °C 30.6in /  1037.2hPa Calm     92% 0in /  0.0mm 0 W/m2
22:28 44.8 °F /  7.1 °C 42.6 °F /  5.9 °C 30.6in /  1037.2hPa East 0.9mph /  1.4km/h 1mph /  1.6km/h 92% 0in /  0.0mm 0 W/m2
22:33 44.8 °F /  7.1 °C 42.6 °F /  5.9 °C 30.6in /  1037.2hPa SE 0.9mph /  1.4km/h 2mph /  3.2km/h 92% 0in /  0.0mm 0 W/m2
22:38 44.8 °F /  7.1 °C 42.6 °F /  5.9 °C 30.6in /  1037.2hPa Calm     92% 0in /  0.0mm 0 W/m2
22:43 44.8 °F /  7.1 °C 42.6 °F /  5.9 °C 30.6in /  1037.2hPa Calm   3mph /  4.8km/h 92% 0in /  0.0mm 0 W/m2
22:48 44.8 °F /  7.1 °C 42.6 °F /  5.9 °C 30.6in /  1037.6hPa ESE 0.9mph /  1.4km/h 1mph /  1.6km/h 92% 0in /  0.0mm 0 W/m2
22:53 44.8 °F /  7.1 °C 42.6 °F /  5.9 °C 30.6in /  1037.6hPa SSE 0.9mph /  1.4km/h 3mph /  4.8km/h 92% 0in /  0.0mm 0 W/m2
22:58 44.8 °F /  7.1 °C 42.6 °F /  5.9 °C 30.6in /  1037.6hPa SE 0.9mph /  1.4km/h 1mph /  1.6km/h 92% 0in /  0.0mm 0 W/m2
23:03 45 °F /  7.2 °C 42.8 °F /  6 °C 30.6in /  1037.2hPa Calm   1mph /  1.6km/h 92% 0in /  0.0mm 0 W/m2
23:08 45 °F /  7.2 °C 42.8 °F /  6 °C 30.6in /  1037.6hPa Calm   1mph /  1.6km/h 92% 0in /  0.0mm 0 W/m2
23:13 45 °F /  7.2 °C 42.8 °F /  6 °C 30.6in /  1037.6hPa Calm   2mph /  3.2km/h 92% 0in /  0.0mm 0 W/m2
23:18 45 °F /  7.2 °C 42.8 °F /  6 °C 30.6in /  1037.6hPa Calm   2mph /  3.2km/h 92% 0in /  0.0mm 0 W/m2
23:23 45.1 °F /  7.3 °C 43 °F /  6.1 °C 30.6in /  1037.6hPa Calm   1mph /  1.6km/h 92% 0in /  0.0mm 0 W/m2
23:28 45.3 °F /  7.4 °C 43.2 °F /  6.2 °C 30.6in /  1037.6hPa SE 0.9mph /  1.4km/h 3mph /  4.8km/h 92% 0in /  0.0mm 0 W/m2
23:33 45.3 °F /  7.4 °C 43.2 °F /  6.2 °C 30.6in /  1037.6hPa Calm   2mph /  3.2km/h 92% 0in /  0.0mm 0 W/m2
23:38 45.5 °F /  7.5 °C 43.3 °F /  6.3 °C 30.6in /  1037.6hPa Calm   2mph /  3.2km/h 92% 0in /  0.0mm 0 W/m2
23:43 45.7 °F /  7.6 °C 43.5 °F /  6.4 °C 30.6in /  1037.6hPa ESE 2mph /  3.2km/h 3mph /  4.8km/h 92% 0in /  0.0mm 0 W/m2
23:48 45.7 °F /  7.6 °C 43.5 °F /  6.4 °C 30.6in /  1037.6hPa Calm   1mph /  1.6km/h 92% 0in /  0.0mm 0 W/m2
23:53 45.7 °F /  7.6 °C 43.5 °F /  6.4 °C 30.6in /  1037.6hPa Calm   2mph /  3.2km/h 92% 0in /  0.0mm 0 W/m2
23:58 45.9 °F /  7.7 °C 43.7 °F /  6.5 °C 30.6in /  1037.6hPa Calm   2mph /  3.2km/h 92% 0in /  0.0mm 0 W/m2
Juneau County Weather
Compliments of Weather Underground - 4 mb